createdAt,value
2023-03-05T00:01:16.355Z,1.25
2023-03-05T00:06:21.580Z,1.21
2023-03-05T00:11:28.089Z,1.19
2023-03-05T00:16:30.460Z,1.18
2023-03-05T00:21:36.363Z,1.18
2023-03-05T00:26:39.190Z,1.19
2023-03-05T00:31:44.892Z,1.20
2023-03-05T00:36:51.389Z,1.21
2023-03-05T00:42:14.046Z,1.21
2023-03-05T00:47:18.455Z,1.19
2023-03-05T00:52:22.138Z,1.13
2023-03-05T00:57:24.349Z,1.10
2023-03-05T01:02:26.941Z,1.07
2023-03-05T01:07:29.166Z,1.08
2023-03-05T01:12:31.361Z,1.09
2023-03-05T01:17:33.549Z,1.06
2023-03-05T01:22:36.004Z,1.01
2023-03-05T01:27:38.156Z,0.95
2023-03-05T01:32:40.258Z,0.90
2023-03-05T01:37:42.925Z,0.87
2023-03-05T01:42:55.599Z,0.84
2023-03-05T01:47:58.591Z,0.78
2023-03-05T01:53:06.213Z,0.73
2023-03-05T01:58:13.793Z,0.70
2023-03-05T02:03:15.754Z,0.69
2023-03-05T02:08:20.559Z,0.67
2023-03-05T02:13:25.760Z,0.65
2023-03-05T02:18:28.828Z,0.62
2023-03-05T02:23:36.626Z,0.58
2023-03-05T02:28:43.295Z,0.53
2023-03-05T02:33:45.683Z,0.52
2023-03-05T02:38:48.610Z,0.51
2023-03-05T02:43:51.227Z,0.48
2023-03-05T02:48:53.594Z,0.43
2023-03-05T02:53:56.249Z,0.40
2023-03-05T02:59:01.678Z,0.38
2023-03-05T03:04:04.083Z,0.37
2023-03-05T03:09:06.175Z,0.39
2023-03-05T03:14:08.233Z,0.40
2023-03-05T03:19:10.401Z,0.39
2023-03-05T03:24:12.312Z,0.36
2023-03-05T03:29:14.386Z,0.38
2023-03-05T03:34:17.563Z,0.32
2023-03-05T03:39:20.607Z,0.20
2023-03-05T03:44:22.826Z,0.09
2023-03-05T03:49:26.307Z,0.05
2023-03-05T03:54:28.352Z,0.04
2023-03-05T03:59:30.301Z,0.04
2023-03-05T04:04:33.152Z,-0.04
2023-03-05T04:09:35.001Z,-0.09
2023-03-05T04:14:38.088Z,-0.10
2023-03-05T04:19:40.854Z,-0.06
2023-03-05T04:24:43.558Z,-0.03
2023-03-05T04:29:45.665Z,-0.02
2023-03-05T04:34:47.838Z,-0.01
2023-03-05T04:39:50.079Z,-0.04
2023-03-05T04:44:52.435Z,-0.04
2023-03-05T04:49:54.505Z,-0.01
2023-03-05T04:54:56.799Z,0.04
2023-03-05T04:59:58.882Z,0.05
2023-03-05T05:05:01.381Z,0.04
2023-03-05T05:10:04.729Z,0.01
2023-03-05T05:15:08.766Z,-0.03
2023-03-05T05:20:12.916Z,-0.10
2023-03-05T05:25:15.576Z,-0.19
2023-03-05T05:30:17.800Z,-0.25
2023-03-05T05:35:19.739Z,-0.28
2023-03-05T05:40:24.893Z,-0.27
2023-03-05T05:45:29.609Z,-0.29
2023-03-05T05:50:38.726Z,-0.31
2023-03-05T05:55:41.361Z,-0.32
2023-03-05T06:00:44.633Z,-0.29
2023-03-05T06:05:48.153Z,-0.26
2023-03-05T06:10:55.234Z,-0.23
2023-03-05T06:15:59.478Z,-0.25
2023-03-05T06:21:06.986Z,-0.23
2023-03-05T06:26:12.059Z,-0.21
2023-03-05T06:31:17.446Z,-0.20
2023-03-05T06:36:22.196Z,-0.17
2023-03-05T06:41:28.124Z,-0.14
2023-03-05T06:46:37.298Z,-0.12
2023-03-05T06:51:40.524Z,-0.03
2023-03-05T06:56:47.285Z,-0.00
2023-03-05T07:01:49.571Z,0.07
2023-03-05T07:06:51.470Z,0.10
2023-03-05T07:11:53.446Z,0.19
2023-03-05T07:16:55.766Z,0.36
2023-03-05T07:21:57.742Z,0.49
2023-03-05T07:27:00.117Z,0.60
2023-03-05T07:32:03.087Z,0.72
2023-03-05T07:37:05.375Z,0.80
2023-03-05T07:42:07.581Z,0.92
2023-03-05T07:47:23.430Z,1.07
2023-03-05T07:52:25.629Z,1.21
2023-03-05T07:57:28.107Z,1.34
2023-03-05T08:02:30.530Z,1.43
2023-03-05T08:07:32.734Z,1.52
2023-03-05T08:12:35.619Z,1.60
2023-03-05T08:17:37.665Z,1.66
2023-03-05T08:22:39.652Z,1.68
2023-03-05T08:27:43.885Z,1.69
2023-03-05T08:32:46.322Z,1.74
2023-03-05T08:37:48.739Z,1.77
2023-03-05T08:42:52.490Z,1.84
2023-03-05T08:47:57.311Z,1.92
2023-03-05T08:53:00.609Z,1.98
2023-03-05T08:58:03.235Z,1.98
2023-03-05T09:03:05.699Z,1.95
2023-03-05T09:08:07.717Z,1.94
2023-03-05T09:13:10.410Z,1.92
2023-03-05T09:18:12.942Z,1.98
2023-03-05T09:23:15.618Z,1.93
2023-03-05T09:28:17.898Z,1.91
2023-03-05T09:33:22.033Z,1.88
2023-03-05T09:38:24.194Z,1.88
2023-03-05T09:43:38.548Z,1.85
2023-03-05T09:48:57.755Z,1.91
2023-03-05T09:54:05.756Z,1.96
2023-03-05T09:59:31.824Z,1.97
2023-03-05T10:04:48.341Z,2.02
2023-03-05T10:10:05.564Z,2.08
2023-03-05T10:15:21.150Z,2.13
2023-03-05T10:20:29.508Z,2.19
2023-03-05T10:25:34.629Z,2.07
2023-03-05T10:31:08.889Z,2.02
2023-03-05T10:36:49.625Z,2.06
2023-03-05T10:42:06.619Z,2.11
2023-03-05T10:47:21.738Z,2.21
2023-03-05T10:52:35.248Z,2.37
2023-03-05T10:57:37.332Z,2.46
2023-03-05T11:02:56.438Z,2.59
2023-03-05T11:07:58.939Z,2.72
2023-03-05T11:13:01.025Z,2.88
2023-03-05T11:18:16.938Z,3.07
2023-03-05T11:23:20.902Z,3.22
2023-03-05T11:28:33.609Z,3.19
2023-03-05T11:33:37.383Z,3.06
2023-03-05T11:38:51.482Z,2.87
2023-03-05T11:43:55.661Z,2.62
2023-03-05T11:49:02.527Z,2.41
2023-03-05T11:54:12.033Z,2.22
2023-03-05T11:59:23.497Z,2.13
2023-03-05T12:04:25.711Z,2.28
2023-03-05T12:09:49.557Z,2.57
2023-03-05T12:15:01.596Z,2.79
2023-03-05T12:20:36.697Z,3.04
2023-03-05T12:25:50.696Z,3.29
2023-03-05T12:30:54.674Z,3.40
2023-03-05T12:36:22.270Z,3.46
2023-03-05T12:41:25.753Z,3.44
2023-03-05T12:46:31.611Z,3.30
2023-03-05T12:51:38.840Z,3.10
2023-03-05T12:56:46.337Z,3.02
2023-03-05T13:02:00.627Z,3.03
2023-03-05T13:07:17.543Z,3.05
2023-03-05T13:12:20.126Z,3.05
2023-03-05T13:17:35.854Z,3.02
2023-03-05T13:22:39.030Z,3.10
2023-03-05T13:27:41.808Z,3.19
2023-03-05T13:32:44.122Z,3.25
2023-03-05T13:37:46.505Z,3.17
2023-03-05T13:42:48.790Z,2.99
2023-03-05T13:48:00.077Z,2.82
2023-03-05T13:53:23.058Z,2.69
2023-03-05T13:58:49.694Z,2.59
2023-03-05T14:03:54.586Z,2.54
2023-03-05T14:09:17.299Z,2.57
2023-03-05T14:14:22.053Z,2.55
2023-03-05T14:19:37.232Z,2.57
2023-03-05T14:24:39.345Z,2.57
2023-03-05T14:29:46.637Z,2.55
2023-03-05T14:34:55.122Z,2.53
2023-03-05T14:40:06.385Z,2.47
2023-03-05T14:45:16.498Z,2.48
2023-03-05T14:50:32.306Z,2.49
2023-03-05T14:55:35.328Z,2.50
2023-03-05T15:00:37.472Z,2.46
2023-03-05T15:05:40.643Z,2.43
2023-03-05T15:10:42.987Z,2.35
2023-03-05T15:15:47.106Z,2.28
2023-03-05T15:20:52.047Z,2.27
2023-03-05T15:25:54.050Z,2.27
2023-03-05T15:30:59.658Z,2.23
2023-03-05T15:36:02.579Z,2.20
2023-03-05T15:41:05.845Z,2.12
2023-03-05T15:46:08.286Z,2.02
2023-03-05T15:51:13.490Z,1.95
2023-03-05T15:56:19.442Z,1.87
2023-03-05T16:01:23.473Z,1.82
2023-03-05T16:06:26.325Z,1.75
2023-03-05T16:11:33.005Z,1.71
2023-03-05T16:16:36.318Z,1.68
2023-03-05T16:21:38.335Z,1.65
2023-03-05T16:26:41.446Z,1.62
2023-03-05T16:31:45.466Z,1.60
2023-03-05T16:36:50.914Z,1.57
2023-03-05T16:41:53.419Z,1.53
2023-03-05T16:46:56.510Z,1.49
2023-03-05T16:52:06.252Z,1.36
2023-03-05T16:57:18.301Z,1.21
2023-03-05T17:02:20.281Z,1.12
2023-03-05T17:07:22.142Z,1.06
2023-03-05T17:12:24.373Z,1.03
2023-03-05T17:17:26.231Z,0.98
2023-03-05T17:22:28.404Z,0.88
2023-03-05T17:27:30.264Z,0.77
2023-03-05T17:32:32.411Z,0.72
2023-03-05T17:37:34.320Z,0.68
2023-03-05T17:42:36.058Z,0.67
2023-03-05T17:47:37.930Z,0.67
2023-03-05T17:52:41.372Z,0.68
2023-03-05T17:57:45.601Z,0.67
2023-03-05T18:02:48.595Z,0.67
2023-03-05T18:07:51.427Z,0.65
2023-03-05T18:12:54.740Z,0.63
2023-03-05T18:17:56.785Z,0.63
2023-03-05T18:23:00.943Z,0.65
2023-03-05T18:28:08.768Z,0.66
2023-03-05T18:33:29.410Z,0.65
2023-03-05T18:38:32.204Z,0.68
2023-03-05T18:43:34.986Z,0.70
2023-03-05T18:48:36.997Z,0.72
2023-03-05T18:53:39.255Z,0.73
2023-03-05T18:58:41.549Z,0.73
2023-03-05T19:03:49.070Z,0.66
2023-03-05T19:09:08.674Z,0.63
2023-03-05T19:14:15.987Z,0.60
2023-03-05T19:19:20.498Z,0.56
2023-03-05T19:24:24.547Z,0.57
2023-03-05T19:29:32.776Z,0.56
2023-03-05T19:34:35.606Z,0.53
2023-03-05T19:39:38.746Z,0.50
2023-03-05T19:44:44.386Z,0.43
2023-03-05T19:49:46.312Z,0.38
2023-03-05T19:54:48.628Z,0.30
2023-03-05T19:59:54.587Z,0.26
2023-03-05T20:04:57.549Z,0.25
2023-03-05T20:10:00.106Z,0.25
2023-03-05T20:15:02.837Z,0.28
2023-03-05T20:20:06.215Z,0.28
2023-03-05T20:25:10.050Z,0.30
2023-03-05T20:30:14.560Z,0.32
2023-03-05T20:35:18.125Z,0.33
2023-03-05T20:40:19.989Z,0.30
2023-03-05T20:45:21.801Z,0.30
2023-03-05T20:50:23.815Z,0.31
2023-03-05T20:55:28.893Z,0.32
2023-03-05T21:00:31.561Z,0.31
2023-03-05T21:05:35.177Z,0.30
2023-03-05T21:10:38.423Z,0.32
2023-03-05T21:15:41.186Z,0.33
2023-03-05T21:20:43.114Z,0.31
2023-03-05T21:25:45.726Z,0.31
2023-03-05T21:30:51.910Z,0.28
2023-03-05T21:35:55.064Z,0.26
2023-03-05T21:40:58.848Z,0.28
2023-03-05T21:46:03.546Z,0.28
2023-03-05T21:51:22.971Z,0.30
2023-03-05T21:56:37.949Z,0.23
2023-03-05T22:01:40.198Z,0.23
2023-03-05T22:06:43.202Z,0.26
2023-03-05T22:11:45.922Z,0.23
2023-03-05T22:17:01.722Z,0.24
2023-03-05T22:22:04.413Z,0.26
2023-03-05T22:27:09.244Z,0.28
2023-03-05T22:32:11.271Z,0.30
2023-03-05T22:37:13.317Z,0.30
2023-03-05T22:42:16.451Z,0.27
2023-03-05T22:47:19.669Z,0.25
2023-03-05T22:52:24.801Z,0.26
2023-03-05T22:57:26.806Z,0.26
2023-03-05T23:02:29.263Z,0.23
2023-03-05T23:07:34.325Z,0.18
2023-03-05T23:12:40.254Z,0.14
2023-03-05T23:17:42.969Z,0.12
2023-03-05T23:22:45.847Z,0.09
2023-03-05T23:27:49.986Z,0.02
2023-03-05T23:32:59.667Z,0.00
2023-03-05T23:38:04.404Z,-0.03
2023-03-05T23:43:06.793Z,-0.05
2023-03-05T23:48:10.295Z,-0.06
2023-03-05T23:53:17.405Z,-0.08
2023-03-05T23:58:23.401Z,-0.16
